Time;durP1;ratioP1;P1;durP2;ratioP2;P2;SDS_P1;SDS_P2;PMS_P1;PMS_P2;Temp;Humidity;BMP_temperature;BMP_pressure;BME280_temperature;BME280_humidity;BME280_pressure;Samples;Min_cycle;Max_cycle;Signal;HPM_P1;HPM_P2
2022/05/12 00:01:26;;;;;;;5.23;3.90;;;21.00;43.70;;;;;;5061305;28;20457;-78
2022/05/12 00:03:51;;;;;;;6.13;3.90;;;21.00;43.90;;;;;;5060123;28;20549;-79
2022/05/12 00:06:17;;;;;;;7.63;3.93;;;21.00;44.30;;;;;;5065719;28;20187;-79
2022/05/12 00:08:43;;;;;;;8.50;4.57;;;21.00;44.60;;;;;;5057225;28;20260;-78
2022/05/12 00:11:09;;;;;;;5.73;3.87;;;20.90;45.00;;;;;;5057140;28;20576;-79
2022/05/12 00:13:35;;;;;;;8.40;4.00;;;20.90;45.40;;;;;;5057404;28;20198;-80
2022/05/12 00:16:00;;;;;;;3.87;3.50;;;20.90;45.50;;;;;;5059032;28;20665;-79
2022/05/12 00:18:27;;;;;;;5.70;4.10;;;20.90;45.70;;;;;;5054589;28;20194;-78
2022/05/12 00:20:53;;;;;;;5.43;3.90;;;20.90;45.90;;;;;;5052766;28;20222;-79
2022/05/12 00:23:22;;;;;;;6.03;3.80;;;20.90;46.20;;;;;;5052582;28;20468;-78
2022/05/12 00:25:49;;;;;;;5.77;4.50;;;20.90;46.50;;;;;;5053318;28;20879;-79
2022/05/12 00:28:18;;;;;;;6.60;4.43;;;20.90;46.60;;;;;;5053577;28;20428;-80
2022/05/12 00:30:45;;;;;;;5.60;3.90;;;20.80;47.00;;;;;;5054579;28;21418;-78
2022/05/12 00:33:12;;;;;;;7.60;4.17;;;20.80;47.10;;;;;;5053386;28;20919;-77
2022/05/12 00:35:39;;;;;;;4.87;4.00;;;20.80;47.10;;;;;;5054187;28;20433;-78
2022/05/12 00:38:04;;;;;;;9.00;4.27;;;20.80;47.30;;;;;;5053263;28;20434;-80
2022/05/12 00:40:30;;;;;;;6.43;3.97;;;20.70;47.70;;;;;;5053893;28;20522;-78
2022/05/12 00:42:56;;;;;;;5.30;3.93;;;20.70;47.90;;;;;;5053854;28;20221;-78
2022/05/12 00:45:22;;;;;;;13.47;4.90;;;20.70;48.10;;;;;;5053953;28;20182;-79
2022/05/12 00:47:47;;;;;;;7.83;4.17;;;20.70;48.20;;;;;;5052979;28;20259;-79
2022/05/12 00:50:15;;;;;;;7.53;3.87;;;20.70;48.30;;;;;;5052815;28;20274;-78
2022/05/12 00:52:42;;;;;;;7.73;4.23;;;20.70;48.60;;;;;;5052591;28;20726;-79
2022/05/12 00:55:15;;;;;;;6.77;4.23;;;20.60;48.70;;;;;;5044829;28;20440;-80
2022/05/12 00:57:48;;;;;;;4.63;4.27;;;20.60;48.90;;;;;;5051781;28;20430;-78
2022/05/12 01:00:15;;;;;;;7.83;4.40;;;20.60;49.00;;;;;;5046585;28;20497;-79
2022/05/12 01:02:44;;;;;;;6.07;4.30;;;20.60;49.10;;;;;;5050077;28;20476;-81
2022/05/12 01:05:11;;;;;;;8.70;4.50;;;20.50;49.10;;;;;;5056190;28;20463;-78
2022/05/12 01:07:37;;;;;;;4.97;4.10;;;20.50;49.30;;;;;;5051460;28;20791;-78
2022/05/12 01:10:05;;;;;;;4.37;3.93;;;20.60;49.10;;;;;;5052379;28;20427;-79
2022/05/12 01:12:31;;;;;;;7.80;4.40;;;20.60;49.10;;;;;;5052844;28;20203;-79
2022/05/12 01:14:57;;;;;;;9.40;5.40;;;20.70;49.00;;;;;;5053329;28;20458;-79
2022/05/12 01:17:24;;;;;;;9.40;4.57;;;20.70;49.00;;;;;;5052855;28;20434;-79
2022/05/12 01:19:51;;;;;;;7.20;4.60;;;20.70;49.40;;;;;;5062222;28;20540;-78
2022/05/12 01:22:53;;;;;;;8.17;4.70;;;20.70;49.80;;;;;;5068383;28;20535;-80
2022/05/12 01:25:23;;;;;;;7.50;4.40;;;20.60;50.10;;;;;;5069015;28;20446;-78
2022/05/12 01:27:49;;;;;;;6.67;4.57;;;20.50;50.30;;;;;;5070763;28;20444;-78
2022/05/12 01:30:18;;;;;;;8.27;5.10;;;20.50;50.50;;;;;;5062543;28;20437;-78
2022/05/12 01:32:46;;;;;;;7.97;4.90;;;20.40;50.50;;;;;;5069040;28;20467;-79
2022/05/12 01:35:13;;;;;;;7.37;4.53;;;20.40;50.90;;;;;;5065879;28;20424;-79
2022/05/12 01:37:40;;;;;;;6.70;4.90;;;20.40;51.00;;;;;;5055674;28;20427;-79
2022/05/12 01:40:07;;;;;;;7.30;5.17;;;20.40;51.20;;;;;;5041385;28;20486;-79
2022/05/12 01:42:33;;;;;;;7.50;4.17;;;20.40;51.30;;;;;;5053788;28;20479;-78
2022/05/12 01:44:59;;;;;;;9.67;4.60;;;20.40;51.60;;;;;;5052395;28;20823;-78
2022/05/12 01:47:25;;;;;;;5.87;4.63;;;20.30;51.60;;;;;;5052973;28;20197;-77
2022/05/12 01:49:50;;;;;;;7.67;3.97;;;20.20;51.70;;;;;;5056422;28;20182;-79
2022/05/12 01:52:16;;;;;;;6.80;4.40;;;20.10;52.00;;;;;;5056577;28;20215;-78
2022/05/12 01:54:42;;;;;;;10.30;5.40;;;20.20;52.40;;;;;;5060576;28;20675;-78
2022/05/12 01:57:08;;;;;;;9.10;5.07;;;20.10;52.20;;;;;;5054359;28;20490;-78
2022/05/12 01:59:34;;;;;;;8.50;4.70;;;20.10;52.90;;;;;;5059125;28;20517;-78
2022/05/12 02:02:00;;;;;;;6.73;4.33;;;20.00;52.90;;;;;;5062081;28;20439;-79
2022/05/12 02:04:26;;;;;;;5.67;4.40;;;19.90;53.20;;;;;;5055292;28;20423;-80
2022/05/12 02:06:52;;;;;;;6.70;4.50;;;19.90;53.30;;;;;;5058687;28;20486;-79
2022/05/12 02:09:18;;;;;;;7.33;4.50;;;19.90;53.40;;;;;;5057609;28;20188;-77
2022/05/12 02:11:44;;;;;;;7.93;4.50;;;19.90;53.60;;;;;;5055884;28;20283;-79
2022/05/12 02:14:10;;;;;;;5.43;4.40;;;19.90;53.80;;;;;;5056874;28;20184;-79
2022/05/12 02:16:36;;;;;;;6.70;4.23;;;19.90;54.40;;;;;;5057464;28;20443;-78
2022/05/12 02:19:05;;;;;;;5.50;4.10;;;20.00;54.80;;;;;;5055767;28;20423;-77
2022/05/12 02:21:31;;;;;;;5.77;4.33;;;19.90;55.00;;;;;;5055038;28;20220;-79
2022/05/12 02:23:57;;;;;;;5.43;4.20;;;19.90;55.30;;;;;;5055564;28;20496;-77
2022/05/12 02:26:24;;;;;;;7.00;4.50;;;19.90;55.00;;;;;;5055696;28;20518;-77
2022/05/12 02:28:50;;;;;;;11.73;4.80;;;19.90;55.60;;;;;;5057593;28;20173;-79
2022/05/12 02:31:15;;;;;;;5.60;4.00;;;19.80;55.60;;;;;;5056822;28;20455;-77
2022/05/12 02:33:41;;;;;;;8.87;4.53;;;19.70;56.10;;;;;;5071117;28;20199;-77
2022/05/12 02:36:07;;;;;;;6.10;4.30;;;19.70;56.10;;;;;;5053530;28;20186;-76
2022/05/12 02:38:33;;;;;;;5.47;4.50;;;19.70;56.40;;;;;;5054889;28;20188;-79
2022/05/12 02:40:59;;;;;;;5.37;4.37;;;19.60;56.60;;;;;;5054646;28;20826;-79
2022/05/12 02:43:24;;;;;;;8.40;4.60;;;19.60;56.60;;;;;;5054963;28;20258;-78
2022/05/12 02:46:05;;;;;;;7.33;4.70;;;19.60;57.20;;;;;;5057393;28;20193;-80
2022/05/12 02:48:34;;;;;;;4.97;4.30;;;19.60;57.30;;;;;;5057389;28;20185;-79
2022/05/12 02:51:00;;;;;;;8.90;4.73;;;19.50;57.60;;;;;;5055555;28;20439;-78
2022/05/12 02:53:27;;;;;;;6.00;4.20;;;19.50;57.80;;;;;;5058022;28;20455;-77
2022/05/12 02:55:53;;;;;;;5.53;4.10;;;19.50;58.40;;;;;;5059501;28;20425;-78
2022/05/12 02:58:18;;;;;;;6.13;4.70;;;19.40;58.40;;;;;;5055868;28;20475;-76
2022/05/12 03:00:46;;;;;;;10.40;4.80;;;19.40;58.70;;;;;;5052946;28;20443;-77
2022/05/12 03:03:12;;;;;;;5.70;4.10;;;19.40;59.10;;;;;;5052013;28;20205;-77
2022/05/12 03:05:39;;;;;;;8.80;4.60;;;19.30;59.70;;;;;;5053215;28;20518;-78
2022/05/12 03:08:05;;;;;;;6.27;4.53;;;19.30;60.30;;;;;;5052882;28;20779;-79
2022/05/12 03:10:33;;;;;;;7.90;4.77;;;19.30;60.40;;;;;;5052476;28;20426;-78
2022/05/12 03:12:59;;;;;;;8.40;4.97;;;19.30;60.70;;;;;;5052463;28;20431;-77
2022/05/12 03:15:24;;;;;;;7.60;4.33;;;19.20;60.90;;;;;;5053525;28;20803;-76
2022/05/12 03:17:51;;;;;;;5.70;4.20;;;19.30;61.50;;;;;;5052956;28;20181;-77
2022/05/12 03:20:19;;;;;;;6.37;4.93;;;19.20;61.70;;;;;;5052818;28;20885;-77
2022/05/12 03:22:45;;;;;;;6.07;4.40;;;19.10;62.20;;;;;;5052950;28;20566;-76
2022/05/12 03:25:13;;;;;;;7.50;4.57;;;19.10;62.50;;;;;;5053493;28;20433;-77
2022/05/12 03:27:40;;;;;;;6.50;5.30;;;19.10;62.80;;;;;;5053016;28;20426;-77
2022/05/12 03:30:08;;;;;;;8.47;5.63;;;19.00;63.10;;;;;;5050549;28;20438;-77
2022/05/12 03:32:34;;;;;;;6.90;4.70;;;19.00;63.20;;;;;;5048944;28;20796;-78
2022/05/12 03:34:59;;;;;;;6.50;4.43;;;19.00;63.50;;;;;;5053328;28;20514;-78
2022/05/12 03:37:25;;;;;;;7.90;4.70;;;19.00;63.70;;;;;;5053507;28;20184;-78
2022/05/12 03:39:51;;;;;;;6.47;4.80;;;19.00;63.90;;;;;;5053352;28;20190;-78
2022/05/12 03:42:18;;;;;;;5.93;4.07;;;18.90;64.10;;;;;;5053047;28;20865;-78
2022/05/12 03:44:47;;;;;;;6.83;4.73;;;18.90;64.20;;;;;;5053158;28;20196;-78
2022/05/12 03:47:33;;;;;;;7.57;4.73;;;19.00;64.50;;;;;;5053666;28;20970;-79
2022/05/12 03:50:05;;;;;;;10.03;5.00;;;19.00;64.20;;;;;;5051180;28;20403;-77
2022/05/12 03:52:31;;;;;;;8.40;4.03;;;19.00;64.40;;;;;;5051891;28;20517;-78
2022/05/12 03:54:57;;;;;;;7.70;4.50;;;19.10;64.40;;;;;;5054682;28;20865;-77
2022/05/12 03:57:25;;;;;;;7.00;3.90;;;19.10;64.40;;;;;;5059083;28;20431;-77
2022/05/12 03:59:51;;;;;;;7.60;4.07;;;19.20;64.20;;;;;;5057407;28;20423;-77
2022/05/12 04:02:18;;;;;;;10.80;3.93;;;19.20;64.20;;;;;;5054846;28;20477;-79
2022/05/12 04:04:46;;;;;;;5.07;4.00;;;19.20;64.10;;;;;;5054721;28;20780;-78
2022/05/12 04:07:14;;;;;;;8.03;3.77;;;19.20;64.40;;;;;;5055074;28;20497;-79
2022/05/12 04:09:41;;;;;;;5.07;3.33;;;19.20;64.10;;;;;;5053787;28;20415;-79
2022/05/12 04:12:09;;;;;;;7.17;3.53;;;19.20;64.10;;;;;;5054619;28;20517;-78
2022/05/12 04:14:36;;;;;;;4.57;2.70;;;19.20;64.20;;;;;;5054841;28;20492;-77
2022/05/12 04:17:02;;;;;;;6.80;3.40;;;19.30;64.10;;;;;;5054385;28;20949;-77
2022/05/12 04:19:28;;;;;;;4.93;3.00;;;19.40;63.90;;;;;;5060991;28;20422;-77
2022/05/12 04:21:54;;;;;;;5.20;3.37;;;19.40;63.90;;;;;;5068239;28;20516;-78
2022/05/12 04:24:20;;;;;;;4.73;2.77;;;19.40;64.10;;;;;;5070213;28;20208;-77
2022/05/12 04:26:46;;;;;;;4.87;2.90;;;19.40;64.10;;;;;;5067464;28;20192;-79
2022/05/12 04:29:13;;;;;;;4.03;2.93;;;19.50;63.80;;;;;;5056640;28;20530;-78
2022/05/12 04:31:39;;;;;;;6.87;3.40;;;19.60;64.10;;;;;;5063437;28;20204;-77
2022/05/12 04:36:50;;;;;;;6.43;3.77;;;19.60;63.90;;;;;;5060748;28;21057;-77
2022/05/12 04:39:17;;;;;;;3.77;2.90;;;19.50;64.20;;;;;;5058596;28;20431;-78
2022/05/12 04:41:43;;;;;;;5.93;2.87;;;19.40;64.80;;;;;;5056668;28;20816;-79
2022/05/12 04:44:09;;;;;;;7.00;3.37;;;19.40;64.80;;;;;;5076185;28;20523;-77
2022/05/12 04:46:37;;;;;;;4.07;3.03;;;19.40;64.80;;;;;;5077322;28;20503;-78
2022/05/12 04:49:04;;;;;;;5.00;2.90;;;19.40;64.80;;;;;;5076047;28;20404;-80
2022/05/12 04:51:31;;;;;;;4.83;2.93;;;19.50;64.80;;;;;;5074146;28;20446;-79
2022/05/12 04:53:58;;;;;;;4.70;2.90;;;19.40;65.30;;;;;;5071626;28;20439;-79
2022/05/12 04:56:24;;;;;;;5.90;3.17;;;19.40;65.40;;;;;;5068568;28;20784;-79
2022/05/12 04:58:50;;;;;;;5.10;3.30;;;19.40;65.60;;;;;;5064066;28;20499;-78
2022/05/12 05:01:15;;;;;;;5.17;3.67;;;19.30;66.00;;;;;;5068952;28;20193;-80
2022/05/12 05:03:42;;;;;;;7.93;4.50;;;19.20;66.10;;;;;;5064714;28;20289;-78
2022/05/12 05:06:08;;;;;;;7.00;4.20;;;19.20;66.40;;;;;;5060400;28;20168;-78
2022/05/12 05:08:34;;;;;;;6.77;4.20;;;19.20;66.60;;;;;;5055528;28;20913;-74
2022/05/12 05:11:00;;;;;;;6.63;4.20;;;19.10;66.90;;;;;;5052210;28;20461;-73
2022/05/12 05:13:26;;;;;;;5.27;3.20;;;19.20;67.30;;;;;;5052655;28;20429;-76
2022/05/12 05:15:53;;;;;;;4.40;3.47;;;19.20;66.90;;;;;;5051883;28;20438;-76
2022/05/12 05:18:21;;;;;;;6.57;4.00;;;19.30;67.00;;;;;;5052052;28;20857;-74
2022/05/12 05:20:47;;;;;;;10.70;4.13;;;19.30;66.90;;;;;;5052305;28;20446;-79
2022/05/12 05:23:21;;;;;;;4.60;3.40;;;19.40;67.00;;;;;;5054904;28;20907;-75
2022/05/12 05:25:48;;;;;;;6.40;3.80;;;19.40;67.30;;;;;;5056794;28;20476;-75
2022/05/12 05:28:14;;;;;;;5.63;3.10;;;19.50;66.70;;;;;;5056878;28;20826;-75
2022/05/12 05:30:41;;;;;;;6.83;3.93;;;19.70;66.10;;;;;;5053645;28;20793;-74
2022/05/12 05:33:08;;;;;;;4.80;3.07;;;19.80;65.80;;;;;;5052626;28;20421;-72
2022/05/12 05:35:34;;;;;;;5.20;3.20;;;20.00;65.00;;;;;;5051155;28;20428;-74
2022/05/12 05:38:01;;;;;;;6.50;2.70;;;20.10;64.50;;;;;;5051685;28;20453;-76
2022/05/12 05:40:28;;;;;;;3.80;2.80;;;20.10;64.20;;;;;;5052925;28;20436;-74
2022/05/12 05:42:55;;;;;;;5.60;2.70;;;20.00;64.50;;;;;;5054999;28;20494;-75
2022/05/12 05:45:22;;;;;;;5.20;3.40;;;20.10;64.50;;;;;;5055562;28;20811;-74
2022/05/12 05:47:55;;;;;;;5.93;3.20;;;20.10;64.10;;;;;;5055120;28;20486;-74
2022/05/12 05:53:23;;;;;;;9.53;3.37;;;20.20;64.10;;;;;;5048836;28;20512;-73
2022/05/12 05:53:24;;;;;;;7.10;3.73;;;20.30;63.90;;;;;;5048043;28;20900;-76
2022/05/12 05:55:52;;;;;;;4.23;2.70;;;20.40;64.10;;;;;;5053301;28;20434;-74
2022/05/12 05:58:18;;;;;;;5.40;3.47;;;20.30;63.70;;;;;;5052587;28;20427;-75
2022/05/12 06:00:45;;;;;;;5.00;2.80;;;20.50;63.70;;;;;;5052533;28;20444;-75
2022/05/12 06:03:11;;;;;;;6.50;3.47;;;20.50;63.70;;;;;;5050654;28;20971;-74
2022/05/12 06:05:37;;;;;;;4.47;3.00;;;20.50;63.40;;;;;;5051220;28;20430;-73
2022/05/12 06:08:04;;;;;;;3.97;2.90;;;20.40;63.50;;;;;;5056282;28;20437;-76
2022/05/12 06:10:30;;;;;;;4.63;3.13;;;20.30;64.10;;;;;;5056910;28;20427;-77
2022/05/12 06:12:56;;;;;;;8.67;4.87;;;20.20;64.50;;;;;;5055152;28;20439;-76
2022/05/12 06:15:23;;;;;;;3.90;3.30;;;20.20;64.70;;;;;;5057289;28;20420;-77
2022/05/12 06:17:49;;;;;;;5.40;2.80;;;20.30;64.40;;;;;;5057624;28;20451;-76
2022/05/12 06:20:16;;;;;;;5.77;2.97;;;20.40;64.20;;;;;;5058144;28;20444;-76
2022/05/12 06:22:43;;;;;;;4.87;2.97;;;20.60;64.10;;;;;;5059492;28;20472;-76
2022/05/12 06:25:12;;;;;;;6.03;3.47;;;20.80;63.50;;;;;;5055129;28;20466;-75
2022/05/12 06:27:37;;;;;;;3.90;2.70;;;20.80;63.40;;;;;;5051741;28;20411;-77
2022/05/12 06:30:11;;;;;;;6.53;3.47;;;20.80;63.50;;;;;;5054732;28;20424;-77
2022/05/12 06:32:38;;;;;;;4.60;3.10;;;21.00;63.10;;;;;;5053111;28;20236;-77
2022/05/12 06:35:05;;;;;;;5.60;2.90;;;21.00;62.30;;;;;;5057926;28;20421;-77
2022/05/12 06:37:32;;;;;;;6.33;3.20;;;20.80;63.10;;;;;;5054603;28;20428;-77
2022/05/12 06:39:58;;;;;;;5.60;2.90;;;20.80;63.50;;;;;;5054877;28;20420;-76
2022/05/12 06:42:23;;;;;;;5.30;3.27;;;21.00;63.80;;;;;;5055966;28;20464;-78
2022/05/12 06:44:50;;;;;;;3.67;2.90;;;21.20;62.90;;;;;;5057925;28;20175;-76
2022/05/12 06:47:16;;;;;;;5.17;3.20;;;21.10;62.60;;;;;;5065673;28;20199;-75
2022/05/12 06:49:43;;;;;;;3.93;2.63;;;21.20;63.20;;;;;;5070848;28;20520;-76
2022/05/12 06:52:10;;;;;;;11.23;4.20;;;21.20;62.80;;;;;;5077512;28;20454;-75
2022/05/12 06:54:37;;;;;;;9.70;3.47;;;21.10;62.90;;;;;;5076112;28;20458;-76
2022/05/12 06:57:04;;;;;;;9.23;3.00;;;21.10;63.40;;;;;;5075872;28;20516;-75
2022/05/12 06:59:30;;;;;;;4.00;2.93;;;20.90;63.80;;;;;;5074987;28;20415;-76
2022/05/12 07:01:56;;;;;;;4.40;2.70;;;20.80;64.10;;;;;;5074726;28;20491;-74
2022/05/12 07:04:24;;;;;;;5.27;2.73;;;20.70;64.80;;;;;;5075571;28;20433;-76
2022/05/12 07:06:50;;;;;;;8.50;3.10;;;20.70;64.70;;;;;;5074673;28;20228;-78
2022/05/12 07:09:18;;;;;;;6.73;2.93;;;20.70;64.50;;;;;;5074583;28;20421;-76
2022/05/12 07:11:44;;;;;;;5.07;3.17;;;20.70;65.00;;;;;;5073431;28;20467;-76
2022/05/12 07:14:10;;;;;;;7.40;3.33;;;20.60;65.40;;;;;;5060994;28;20428;-75
2022/05/12 07:16:36;;;;;;;6.90;2.70;;;20.70;65.10;;;;;;5058215;28;20438;-76
2022/05/12 07:19:02;;;;;;;4.23;3.20;;;20.70;64.80;;;;;;5054483;28;20958;-76
2022/05/12 07:26:56;;;;;;;4.93;3.10;;;20.90;64.80;;;;;;5061264;28;20416;-77
2022/05/12 07:29:25;;;;;;;8.43;2.90;;;20.90;64.80;;;;;;5059426;28;20428;-76
2022/05/12 07:31:52;;;;;;;5.13;2.40;;;21.00;64.50;;;;;;5055084;28;20365;-76
2022/05/12 07:34:19;;;;;;;6.33;2.90;;;20.90;65.30;;;;;;5056874;28;20438;-77
2022/05/12 07:36:48;;;;;;;9.50;3.27;;;20.90;65.30;;;;;;5053983;28;20433;-75
2022/05/12 07:39:14;;;;;;;6.73;3.03;;;21.20;64.70;;;;;;5054075;28;20432;-77
2022/05/12 07:41:41;;;;;;;6.07;2.90;;;21.30;63.70;;;;;;5060533;28;20445;-77
2022/05/12 07:44:10;;;;;;;6.43;3.13;;;21.40;62.90;;;;;;5054726;28;20900;-77
2022/05/12 07:46:37;;;;;;;3.07;2.60;;;21.40;62.90;;;;;;5051081;28;20827;-74
2022/05/12 07:49:03;;;;;;;5.70;2.50;;;21.20;63.80;;;;;;5050360;28;20786;-75
2022/05/12 07:51:29;;;;;;;4.63;2.50;;;21.10;64.40;;;;;;5051276;28;20479;-76
2022/05/12 07:53:55;;;;;;;4.90;3.10;;;21.00;64.50;;;;;;5008243;28;1247617;-76
2022/05/12 07:56:23;;;;;;;9.57;3.07;;;20.80;65.30;;;;;;5051041;28;20498;-76
2022/05/12 07:58:50;;;;;;;5.97;2.70;;;20.80;65.10;;;;;;5051507;28;20552;-74
2022/05/12 08:01:17;;;;;;;5.20;2.73;;;21.00;65.00;;;;;;5052421;28;20467;-77
2022/05/12 08:03:44;;;;;;;8.00;2.70;;;21.10;64.70;;;;;;5050411;28;20463;-76
2022/05/12 08:06:10;;;;;;;2.90;2.47;;;21.10;64.40;;;;;;5044139;28;20424;-76
2022/05/12 08:08:38;;;;;;;7.37;3.57;;;21.30;64.20;;;;;;5051490;28;20424;-76
2022/05/12 08:11:08;;;;;;;4.23;2.53;;;21.20;63.80;;;;;;5052163;28;20537;-75
2022/05/12 08:13:34;;;;;;;8.50;2.77;;;21.20;64.20;;;;;;5065360;28;20437;-76
2022/05/12 08:16:02;;;;;;;3.47;2.10;;;21.10;64.50;;;;;;5062486;28;20429;-76
2022/05/12 08:18:28;;;;;;;4.13;2.70;;;21.20;64.20;;;;;;5051994;28;20455;-76
2022/05/12 08:20:54;;;;;;;5.00;2.70;;;21.40;63.40;;;;;;5051692;28;20504;-76
2022/05/12 08:23:21;;;;;;;4.20;2.80;;;21.60;62.90;;;;;;5049957;28;20476;-77
2022/05/12 08:25:47;;;;;;;4.97;3.20;;;21.60;62.90;;;;;;5052717;28;21119;-78
2022/05/12 08:28:15;;;;;;;4.10;3.20;;;21.60;63.10;;;;;;5052155;28;20417;-77
2022/05/12 08:30:44;;;;;;;4.83;3.20;;;21.60;63.10;;;;;;5052264;28;20476;-77
2022/05/12 08:33:10;;;;;;;6.63;2.83;;;21.60;62.90;;;;;;5052126;28;20459;-76
2022/05/12 08:35:36;;;;;;;6.43;3.63;;;21.70;62.50;;;;;;5052380;28;20559;-77
2022/05/12 08:38:02;;;;;;;4.00;3.00;;;21.60;62.80;;;;;;5050521;28;20441;-77
2022/05/12 08:40:37;;;;;;;4.23;3.20;;;21.40;63.10;;;;;;5052765;28;20441;-78
2022/05/12 08:43:13;;;;;;;7.37;4.83;;;21.30;63.90;;;;;;5052155;28;20464;-77
2022/05/12 08:45:39;;;;;;;7.57;3.50;;;21.50;63.70;;;;;;5052161;28;20743;-76
2022/05/12 08:48:06;;;;;;;8.23;3.23;;;21.60;63.20;;;;;;5051285;28;20422;-76
2022/05/12 08:50:33;;;;;;;6.10;3.47;;;21.60;62.50;;;;;;5051629;28;20429;-76
2022/05/12 08:53:02;;;;;;;4.47;3.70;;;21.60;62.60;;;;;;5050270;28;20510;-76
2022/05/12 08:55:37;;;;;;;6.23;3.33;;;21.30;63.80;;;;;;5052428;28;20795;-77
2022/05/12 08:58:30;;;;;;;5.83;3.50;;;21.30;64.10;;;;;;5052223;28;20472;-75
2022/05/12 09:01:20;;;;;;;6.53;3.53;;;21.40;63.50;;;;;;5051904;28;20486;-75
2022/05/12 09:04:12;;;;;;;5.90;3.60;;;21.50;63.40;;;;;;5052469;28;20487;-76
2022/05/12 09:06:50;;;;;;;4.90;3.10;;;21.80;63.20;;;;;;5056925;28;20412;-78
2022/05/12 09:09:39;;;;;;;4.97;3.63;;;22.00;62.80;;;;;;5045883;28;20457;-77
2022/05/12 09:12:31;;;;;;;7.13;3.77;;;21.90;62.20;;;;;;5053970;28;20946;-76
2022/05/12 09:15:08;;;;;;;5.70;4.03;;;21.90;61.90;;;;;;5050632;28;20418;-77
2022/05/12 09:17:56;;;;;;;6.27;3.93;;;21.80;62.80;;;;;;5048784;28;20425;-76
2022/05/12 09:20:23;;;;;;;5.17;3.60;;;22.00;62.20;;;;;;5050868;28;20419;-75
2022/05/12 09:22:49;;;;;;;5.20;3.43;;;22.10;61.60;;;;;;5052609;28;20473;-75
2022/05/12 09:25:36;;;;;;;8.03;4.80;;;22.00;62.00;;;;;;5042072;28;20437;-76
2022/05/12 09:28:29;;;;;;;7.17;3.83;;;22.00;62.20;;;;;;5050383;28;20189;-76
2022/05/12 09:31:15;;;;;;;5.50;4.03;;;22.10;62.30;;;;;;5047392;28;20811;-76
2022/05/12 09:33:42;;;;;;;4.60;3.40;;;22.40;60.90;;;;;;5051173;28;20482;-75
2022/05/12 09:36:24;;;;;;;11.47;4.40;;;22.40;60.60;;;;;;5050842;28;20427;-76
2022/05/12 09:38:54;;;;;;;15.77;4.60;;;22.60;60.30;;;;;;5053703;28;20418;-74
2022/05/12 09:41:37;;;;;;;5.63;4.30;;;22.70;60.00;;;;;;5055456;28;20989;-76
2022/05/12 09:44:23;;;;;;;7.40;5.20;;;22.90;59.10;;;;;;5052259;28;20469;-76
2022/05/12 09:46:56;;;;;;;9.60;5.20;;;23.00;58.80;;;;;;5051166;28;20887;-76
2022/05/12 09:49:28;;;;;;;12.00;5.10;;;23.10;58.10;;;;;;5050955;28;20417;-77
2022/05/12 09:51:54;;;;;;;9.10;4.47;;;23.20;58.00;;;;;;5050643;28;20458;-75
2022/05/12 09:54:28;;;;;;;11.23;5.53;;;23.40;57.40;;;;;;5051067;28;20511;-76
2022/05/12 09:57:20;;;;;;;6.90;4.50;;;23.60;57.40;;;;;;5050996;28;20357;-74
2022/05/12 09:59:57;;;;;;;5.70;4.67;;;24.00;55.70;;;;;;5047431;28;20443;-77
2022/05/12 10:08:25;;;;;;;4.90;3.90;;;24.20;55.70;;;;;;5059294;28;20412;-76
2022/05/12 10:11:13;;;;;;;5.30;3.60;;;24.10;56.10;;;;;;5056665;28;20479;-75
2022/05/12 10:13:47;;;;;;;6.97;4.93;;;23.90;56.80;;;;;;5059004;28;20421;-75
2022/05/12 10:16:18;;;;;;;8.07;4.07;;;23.90;57.20;;;;;;5055890;28;20803;-76
2022/05/12 10:18:47;;;;;;;5.47;4.13;;;23.50;57.80;;;;;;5051793;28;20441;-76
2022/05/12 10:21:35;;;;;;;6.03;3.70;;;23.50;58.10;;;;;;5044474;28;20442;-77
2022/05/12 10:24:28;;;;;;;5.60;4.40;;;23.60;58.10;;;;;;5052392;28;20460;-76
2022/05/12 10:27:16;;;;;;;7.30;4.50;;;23.90;57.40;;;;;;5050499;28;20517;-76
2022/05/12 10:29:57;;;;;;;4.80;4.10;;;23.80;56.60;;;;;;5047027;28;20424;-76
2022/05/12 10:32:41;;;;;;;4.70;4.00;;;23.60;57.40;;;;;;5053857;28;20476;-77
2022/05/12 10:35:16;;;;;;;7.53;4.27;;;23.50;57.70;;;;;;5053379;28;20923;-75
2022/05/12 10:37:57;;;;;;;5.43;4.60;;;23.80;57.20;;;;;;5051026;28;20966;-75
2022/05/12 10:40:23;;;;;;;4.70;4.17;;;24.30;56.20;;;;;;5044473;28;20861;-77
2022/05/12 10:42:58;;;;;;;5.80;4.40;;;24.60;55.40;;;;;;5047677;28;20489;-76
2022/05/12 10:45:48;;;;;;;7.27;4.67;;;24.60;55.20;;;;;;5048983;28;20617;-78
2022/05/12 10:48:23;;;;;;;6.60;4.40;;;24.80;54.20;;;;;;5051972;28;21078;-77
2022/05/12 10:51:02;;;;;;;10.10;4.50;;;24.60;53.80;;;;;;5052632;28;20450;-77
2022/05/12 10:53:59;;;;;;;6.60;4.50;;;24.70;54.50;;;;;;5053482;28;20937;-75
2022/05/12 10:56:46;;;;;;;9.80;5.10;;;25.10;52.60;;;;;;5053288;28;20417;-77
2022/05/12 10:59:49;;;;;;;5.90;4.40;;;25.30;52.10;;;;;;5052247;28;20441;-76
2022/05/12 11:02:40;;;;;;;8.07;5.33;;;25.40;52.60;;;;;;5053475;28;20502;-75
2022/05/12 11:05:42;;;;;;;7.57;4.43;;;25.40;52.10;;;;;;5053051;28;20441;-76
2022/05/12 11:08:21;;;;;;;7.40;4.70;;;25.40;51.70;;;;;;5053192;28;20471;-76
2022/05/12 11:10:51;;;;;;;8.13;4.80;;;25.80;51.00;;;;;;5049684;28;20433;-76
2022/05/12 11:13:33;;;;;;;7.10;4.97;;;25.70;51.00;;;;;;5053058;28;20425;-77
2022/05/12 11:16:05;;;;;;;11.60;4.80;;;25.40;51.60;;;;;;5053621;28;20515;-77
2022/05/12 11:19:10;;;;;;;9.80;5.13;;;25.50;52.00;;;;;;5052338;28;20823;-77
2022/05/12 11:22:03;;;;;;;8.10;4.80;;;26.20;50.60;;;;;;5052492;28;20503;-77
2022/05/12 11:24:40;;;;;;;6.37;4.97;;;26.50;49.40;;;;;;5049400;28;20468;-78
2022/05/12 11:27:26;;;;;;;6.87;4.37;;;26.30;49.50;;;;;;5055112;28;20517;-77
2022/05/12 11:30:22;;;;;;;12.10;4.43;;;25.90;50.90;;;;;;5060361;28;20428;-76
2022/05/12 11:33:02;;;;;;;9.77;5.00;;;26.30;50.20;;;;;;5075882;28;20450;-78
2022/05/12 11:35:49;;;;;;;5.87;4.80;;;26.30;49.50;;;;;;5064631;28;20436;-77
2022/05/12 11:38:43;;;;;;;7.17;4.80;;;26.20;49.90;;;;;;5065487;28;20479;-76
2022/05/12 11:41:21;;;;;;;7.60;5.43;;;26.00;50.60;;;;;;5054630;28;20805;-76
2022/05/12 11:46:42;;;;;;;7.40;4.90;;;25.10;52.20;;;;;;5049145;28;20408;-75
2022/05/12 11:49:44;;;;;;;7.80;4.57;;;25.20;52.00;;;;;;5052029;28;21018;-77
2022/05/12 11:52:36;;;;;;;8.73;5.40;;;25.40;51.40;;;;;;5059886;28;20533;-75
2022/05/12 11:55:07;;;;;;;5.53;4.60;;;26.00;50.70;;;;;;5058848;28;20637;-76
2022/05/12 11:57:38;;;;;;;8.17;4.97;;;26.40;49.40;;;;;;5057968;28;20428;-76
2022/05/12 12:00:33;;;;;;;10.87;4.83;;;26.60;48.70;;;;;;5054467;28;20418;-76
2022/05/12 12:03:19;;;;;;;8.60;5.10;;;26.70;48.70;;;;;;5053378;28;20994;-76
2022/05/12 12:05:48;;;;;;;7.50;5.33;;;26.70;48.10;;;;;;5053054;28;20535;-76
2022/05/12 12:08:32;;;;;;;9.30;5.10;;;26.80;48.20;;;;;;5046636;28;20425;-77
2022/05/12 12:11:25;;;;;;;12.60;5.60;;;26.50;48.90;;;;;;5052603;28;20501;-77
2022/05/12 12:13:54;;;;;;;6.97;5.07;;;26.40;48.50;;;;;;5052550;28;20935;-76
2022/05/12 12:16:23;;;;;;;7.60;4.87;;;26.10;49.10;;;;;;5053719;28;20413;-77
2022/05/12 12:18:55;;;;;;;10.43;5.53;;;26.00;49.50;;;;;;5052046;28;20886;-77
2022/05/12 12:21:34;;;;;;;8.57;5.43;;;26.40;49.50;;;;;;5052362;28;20490;-75
2022/05/12 12:24:20;;;;;;;7.73;5.90;;;26.60;48.50;;;;;;5052686;28;20465;-76
2022/05/12 12:26:55;;;;;;;9.00;5.30;;;26.60;48.20;;;;;;5044516;28;20429;-76
2022/05/12 12:29:45;;;;;;;7.60;5.03;;;26.80;48.10;;;;;;5052240;28;20967;-75
2022/05/12 12:32:33;;;;;;;8.93;5.40;;;27.40;46.70;;;;;;5044200;28;20449;-76
2022/05/12 12:35:14;;;;;;;8.00;5.67;;;27.50;46.50;;;;;;5053775;28;20418;-75
2022/05/12 12:37:50;;;;;;;7.60;5.53;;;27.70;46.10;;;;;;5054124;28;20415;-76
2022/05/12 12:40:31;;;;;;;7.17;5.10;;;28.20;45.70;;;;;;5055034;28;20452;-75
2022/05/12 12:42:59;;;;;;;7.40;5.40;;;28.10;44.90;;;;;;5053843;28;20568;-75
2022/05/12 12:45:25;;;;;;;9.97;5.73;;;27.60;45.90;;;;;;5053164;28;20420;-76
2022/05/12 12:48:02;;;;;;;7.87;4.60;;;27.50;46.50;;;;;;5054566;28;20433;-76
2022/05/12 12:50:42;;;;;;;12.70;5.13;;;27.00;47.90;;;;;;5054404;28;20431;-75
2022/05/12 12:56:37;;;;;;;7.43;5.07;;;26.90;48.60;;;;;;5055135;28;20460;-76
2022/05/12 12:59:14;;;;;;;6.83;5.20;;;26.90;48.10;;;;;;5054073;28;20993;-76
2022/05/12 13:01:54;;;;;;;6.80;4.70;;;27.10;47.40;;;;;;5055173;28;20440;-78
2022/05/12 13:04:25;;;;;;;7.30;4.60;;;27.10;47.90;;;;;;5049318;28;20556;-76
2022/05/12 13:06:57;;;;;;;7.77;4.70;;;27.00;49.00;;;;;;5053854;28;20414;-77
2022/05/12 13:09:29;;;;;;;7.17;4.20;;;26.70;49.90;;;;;;5053205;28;20426;-78
2022/05/12 13:12:27;;;;;;;7.43;4.53;;;26.70;50.60;;;;;;5055877;28;20449;-76
2022/05/12 13:14:56;;;;;;;9.27;4.67;;;26.40;50.60;;;;;;5059130;28;20426;-76
2022/05/12 13:17:34;;;;;;;7.83;4.40;;;26.20;51.70;;;;;;5058372;28;20423;-76
2022/05/12 13:20:01;;;;;;;6.07;4.60;;;26.00;52.10;;;;;;5053235;28;20491;-78
2022/05/12 13:22:45;;;;;;;6.00;3.93;;;25.60;52.80;;;;;;5055591;28;20446;-76
2022/05/12 13:25:15;;;;;;;6.33;4.47;;;25.80;52.90;;;;;;5055077;28;20453;-76
2022/05/12 13:27:42;;;;;;;10.40;4.87;;;26.20;52.00;;;;;;5052137;28;20410;-74